ADDS METAR Data INFO
IDs: Format: Raw Decoded Include TAF

Data at: 1903 UTC 21 Apr 2018

METAR for:LFOK (Chalons-Vatry(AFB), --, FR)
Text:LFOK 211830Z AUTO 07002KT CAVOK 23/12 Q1017 NOSIG
Temperature: 23.0°C ( 73°F)
Dewpoint: 12.0°C ( 54°F) [RH = 50%]
Pressure (altimeter):30.03 inches Hg (1017.0 mb)
Winds:from the ENE (70 degrees) at 2 MPH (2 knots; 1.0 m/s)
Visibility:6 or more sm (10+ km)
Ceiling:ceiling and visibility are OK
Clouds:unknown

TAF for:LFOK (Chalons-Vatry(AFB), --, FR) issued at 1700 UTC 21 Apr 2018
Text:TAF LFOK 211700Z 2118/2218 VRB02KT CAVOK
Forecast period:1800 UTC 21 April 2018 to 0700 UTC 22 April 2018
Forecast type:FROM: standard forecast or significant change
Winds:variable direction winds at 2 MPH (2 knots; 1.0 m/s)
Visibility:6 or more sm (10+ km)
Clouds:missing
Weather:NSW (no significant weather)
Text:PROB30
Forecast period:0100 to 0400 UTC 22 April 2018
Forecast type:TEMPORARY: The following changes expected for less than half the time period
Visibility: 2.49 sm ( 4.01 km)
Ceiling:6000 feet AGL
Clouds: broken clouds at 6000 feet AGL
Weather:SHRA (rain showers)
Text:TEMPO 2201/2204 4000 SHRA BKN060CB
Forecast period:0700 to 1800 UTC 22 April 2018
Forecast type:BECOMING: Conditions expected to become as follows by 1000 UTC 22 April 2018
Winds:from the SW (230 degrees) at 14 MPH (12 knots; 6.2 m/s)
Visibility:6 or more sm (10+ km)
Clouds:missing
Weather:NSW (no significant weather)